Terminal Aerodrome Forecast
Issued by NWS Sioux Falls, SD

Home | Current Version | Previous Version | Graphics & Text | Print | Product List | Glossary On
Versions: 1 2 3 4 5 6 7 8 9 10 11 12 13
558
FTUS43 KFSD 181131
TAFHON
TAF
KHON 181131Z 1812/1912 20004KT P6SM SCT120
     FM181500 26004KT P6SM SCT110
     FM181700 31011KT P6SM FEW250
     FM182000 33013G18KT P6SM FEW250
     FM190100 01006KT P6SM SKC
     FM190500 16004KT P6SM SKC=

USA.gov is the U.S. government's official web portal to all federal, state and local government web resources and services.